sensor_id;sensor_type;location;lat;lon;timestamp;pressure;altitude;pressure_sealevel;temperature;humidity
77366;BME280;66430;50.182;11.704;2023-06-22T00:01:30;95004.94;;;23.17;38.86
77366;BME280;66430;50.182;11.704;2023-06-22T00:03:56;95005.70;;;23.14;38.32
77366;BME280;66430;50.182;11.704;2023-06-22T00:06:21;95005.36;;;23.13;38.55
77366;BME280;66430;50.182;11.704;2023-06-22T00:08:47;94998.45;;;22.85;39.35
77366;BME280;66430;50.182;11.704;2023-06-22T00:11:12;94993.37;;;23.05;39.78
77366;BME280;66430;50.182;11.704;2023-06-22T00:13:38;94991.49;;;23.00;40.26
77366;BME280;66430;50.182;11.704;2023-06-22T00:16:02;94993.03;;;22.93;40.08
77366;BME280;66430;50.182;11.704;2023-06-22T00:18:27;95000.80;;;22.90;40.20
77366;BME280;66430;50.182;11.704;2023-06-22T00:20:54;95002.86;;;22.88;39.85
77366;BME280;66430;50.182;11.704;2023-06-22T00:23:18;95004.63;;;22.84;40.06
77366;BME280;66430;50.182;11.704;2023-06-22T00:25:44;94997.15;;;22.84;39.47
77366;BME280;66430;50.182;11.704;2023-06-22T00:28:10;94995.42;;;23.06;40.02
77366;BME280;66430;50.182;11.704;2023-06-22T00:30:35;94996.12;;;22.78;40.19
77366;BME280;66430;50.182;11.704;2023-06-22T00:33:00;95001.94;;;22.82;39.33
77366;BME280;66430;50.182;11.704;2023-06-22T00:35:26;95007.37;;;22.82;38.87
77366;BME280;66430;50.182;11.704;2023-06-22T00:37:51;95003.66;;;22.83;38.46
77366;BME280;66430;50.182;11.704;2023-06-22T00:40:16;94996.53;;;22.78;38.71
77366;BME280;66430;50.182;11.704;2023-06-22T00:42:41;94988.27;;;22.73;39.13
77366;BME280;66430;50.182;11.704;2023-06-22T00:45:08;94987.35;;;22.59;39.23
77366;BME280;66430;50.182;11.704;2023-06-22T00:47:34;94991.31;;;22.55;38.68
77366;BME280;66430;50.182;11.704;2023-06-22T00:49:58;94988.94;;;22.73;38.76
77366;BME280;66430;50.182;11.704;2023-06-22T00:52:25;94985.59;;;22.48;39.25
77366;BME280;66430;50.182;11.704;2023-06-22T00:54:50;94977.25;;;22.84;39.69
77366;BME280;66430;50.182;11.704;2023-06-22T00:57:15;94977.23;;;22.57;39.61
77366;BME280;66430;50.182;11.704;2023-06-22T00:59:41;94983.10;;;22.28;39.59
77366;BME280;66430;50.182;11.704;2023-06-22T01:02:05;94985.92;;;22.28;38.68
77366;BME280;66430;50.182;11.704;2023-06-22T01:04:35;94984.23;;;22.50;38.57
77366;BME280;66430;50.182;11.704;2023-06-22T01:07:02;94983.77;;;22.48;38.81
77366;BME280;66430;50.182;11.704;2023-06-22T01:09:26;94989.00;;;22.45;38.94
77366;BME280;66430;50.182;11.704;2023-06-22T01:11:49;94986.75;;;22.42;39.06
77366;BME280;66430;50.182;11.704;2023-06-22T01:14:15;94987.76;;;22.17;38.84
77366;BME280;66430;50.182;11.704;2023-06-22T01:16:41;94984.98;;;22.39;39.38
77366;BME280;66430;50.182;11.704;2023-06-22T01:19:15;94985.02;;;22.13;39.38
77366;BME280;66430;50.182;11.704;2023-06-22T01:21:30;94986.99;;;22.60;38.85
77366;BME280;66430;50.182;11.704;2023-06-22T01:24:03;94987.52;;;22.59;39.37
77366;BME280;66430;50.182;11.704;2023-06-22T01:26:25;94985.15;;;22.32;39.04
77366;BME280;66430;50.182;11.704;2023-06-22T01:28:47;94984.50;;;22.03;39.91
77366;BME280;66430;50.182;11.704;2023-06-22T01:31:12;94984.17;;;22.27;39.97
77366;BME280;66430;50.182;11.704;2023-06-22T01:33:39;94982.72;;;22.27;40.98
77366;BME280;66430;50.182;11.704;2023-06-22T01:36:02;94974.35;;;22.02;41.21
77366;BME280;66430;50.182;11.704;2023-06-22T01:38:28;94970.70;;;22.50;40.95
77366;BME280;66430;50.182;11.704;2023-06-22T01:40:54;94973.12;;;22.26;39.82
77366;BME280;66430;50.182;11.704;2023-06-22T01:43:18;94970.65;;;21.93;40.90
77366;BME280;66430;50.182;11.704;2023-06-22T01:45:43;94970.96;;;22.14;39.97
77366;BME280;66430;50.182;11.704;2023-06-22T01:48:08;94972.56;;;22.32;40.00
77366;BME280;66430;50.182;11.704;2023-06-22T01:50:34;94970.46;;;21.87;40.24
77366;BME280;66430;50.182;11.704;2023-06-22T01:53:00;94973.26;;;22.23;40.44
77366;BME280;66430;50.182;11.704;2023-06-22T01:55:24;94974.60;;;21.90;40.11
77366;BME280;66430;50.182;11.704;2023-06-22T01:57:50;94976.73;;;22.05;40.12
77366;BME280;66430;50.182;11.704;2023-06-22T02:00:20;94975.40;;;21.97;40.04
77366;BME280;66430;50.182;11.704;2023-06-22T02:02:48;94967.90;;;21.70;40.02
77366;BME280;66430;50.182;11.704;2023-06-22T02:05:08;94956.74;;;21.65;40.43
77366;BME280;66430;50.182;11.704;2023-06-22T02:07:39;94959.35;;;21.66;41.04
77366;BME280;66430;50.182;11.704;2023-06-22T02:09:57;94962.35;;;21.62;41.17
77366;BME280;66430;50.182;11.704;2023-06-22T02:12:24;94958.23;;;21.55;41.62
77366;BME280;66430;50.182;11.704;2023-06-22T02:14:48;94956.14;;;21.47;42.00
77366;BME280;66430;50.182;11.704;2023-06-22T02:17:14;94946.06;;;21.37;41.98
77366;BME280;66430;50.182;11.704;2023-06-22T02:19:41;94943.35;;;21.27;42.15
77366;BME280;66430;50.182;11.704;2023-06-22T02:22:05;94943.78;;;21.21;42.34
77366;BME280;66430;50.182;11.704;2023-06-22T02:24:30;94943.85;;;21.22;42.23
77366;BME280;66430;50.182;11.704;2023-06-22T02:26:56;94943.44;;;21.18;42.46
77366;BME280;66430;50.182;11.704;2023-06-22T02:29:21;94944.29;;;21.18;42.38
77366;BME280;66430;50.182;11.704;2023-06-22T02:31:47;94947.89;;;21.22;42.43
77366;BME280;66430;50.182;11.704;2023-06-22T02:34:15;94945.90;;;21.27;42.24
77366;BME280;66430;50.182;11.704;2023-06-22T02:36:39;94947.53;;;21.32;42.20
77366;BME280;66430;50.182;11.704;2023-06-22T02:39:04;94947.99;;;21.34;41.76
77366;BME280;66430;50.182;11.704;2023-06-22T02:41:30;94945.75;;;21.33;41.83
77366;BME280;66430;50.182;11.704;2023-06-22T02:43:55;94938.60;;;21.30;41.92
77366;BME280;66430;50.182;11.704;2023-06-22T02:46:21;94939.11;;;21.31;41.67
77366;BME280;66430;50.182;11.704;2023-06-22T02:48:47;94944.50;;;21.31;41.31
77366;BME280;66430;50.182;11.704;2023-06-22T02:51:13;94951.41;;;21.30;41.21
77366;BME280;66430;50.182;11.704;2023-06-22T02:53:37;94956.63;;;21.33;41.36
77366;BME280;66430;50.182;11.704;2023-06-22T02:56:03;94957.20;;;21.35;41.19
77366;BME280;66430;50.182;11.704;2023-06-22T02:58:28;94951.82;;;21.34;41.45
77366;BME280;66430;50.182;11.704;2023-06-22T03:00:54;94949.44;;;21.09;41.74
77366;BME280;66430;50.182;11.704;2023-06-22T03:03:20;94943.64;;;21.34;41.39
77366;BME280;66430;50.182;11.704;2023-06-22T03:05:45;94946.49;;;21.36;41.25
77366;BME280;66430;50.182;11.704;2023-06-22T03:08:12;94951.71;;;21.38;41.08
77366;BME280;66430;50.182;11.704;2023-06-22T03:10:38;94957.90;;;21.37;41.31
77366;BME280;66430;50.182;11.704;2023-06-22T03:13:02;94966.13;;;21.38;41.55
77366;BME280;66430;50.182;11.704;2023-06-22T03:15:28;94985.56;;;21.45;41.59
77366;BME280;66430;50.182;11.704;2023-06-22T03:17:53;94997.22;;;21.67;41.98
77366;BME280;66430;50.182;11.704;2023-06-22T03:20:18;95015.27;;;20.80;42.98
77366;BME280;66430;50.182;11.704;2023-06-22T03:22:43;95043.41;;;20.94;43.45
77366;BME280;66430;50.182;11.704;2023-06-22T03:25:09;95073.57;;;20.82;43.83
77366;BME280;66430;50.182;11.704;2023-06-22T03:27:34;95121.60;;;20.52;44.45
77366;BME280;66430;50.182;11.704;2023-06-22T03:30:00;95162.41;;;20.53;44.49
77366;BME280;66430;50.182;11.704;2023-06-22T03:32:25;95176.93;;;20.56;44.67
77366;BME280;66430;50.182;11.704;2023-06-22T03:34:51;95171.26;;;20.88;45.40
77366;BME280;66430;50.182;11.704;2023-06-22T03:37:17;95155.14;;;21.05;44.49
77366;BME280;66430;50.182;11.704;2023-06-22T03:39:42;95147.79;;;21.01;44.23
77366;BME280;66430;50.182;11.704;2023-06-22T03:42:08;95151.74;;;21.17;43.89
77366;BME280;66430;50.182;11.704;2023-06-22T03:44:33;95164.60;;;20.99;44.29
77366;BME280;66430;50.182;11.704;2023-06-22T03:46:58;95158.61;;;21.01;44.46
77366;BME280;66430;50.182;11.704;2023-06-22T03:49:24;95145.81;;;21.13;44.16
77366;BME280;66430;50.182;11.704;2023-06-22T03:51:49;95144.97;;;21.26;44.15
77366;BME280;66430;50.182;11.704;2023-06-22T03:54:14;95126.85;;;21.46;44.00
77366;BME280;66430;50.182;11.704;2023-06-22T03:56:40;95071.06;;;21.51;43.59
77366;BME280;66430;50.182;11.704;2023-06-22T03:59:05;95025.77;;;21.49;43.66
77366;BME280;66430;50.182;11.704;2023-06-22T04:01:30;95035.27;;;21.55;43.88
77366;BME280;66430;50.182;11.704;2023-06-22T04:03:57;95065.95;;;21.70;43.64
77366;BME280;66430;50.182;11.704;2023-06-22T04:06:24;95084.62;;;21.93;43.20
77366;BME280;66430;50.182;11.704;2023-06-22T04:08:47;95095.70;;;22.18;42.84
77366;BME280;66430;50.182;11.704;2023-06-22T04:11:12;95100.64;;;21.97;43.38
77366;BME280;66430;50.182;11.704;2023-06-22T04:13:38;95103.51;;;21.68;43.61
77366;BME280;66430;50.182;11.704;2023-06-22T04:16:04;95104.65;;;22.01;43.18
77366;BME280;66430;50.182;11.704;2023-06-22T04:18:29;95097.66;;;21.74;43.46
77366;BME280;66430;50.182;11.704;2023-06-22T04:20:54;95077.39;;;22.07;43.19
77366;BME280;66430;50.182;11.704;2023-06-22T04:23:19;95064.09;;;22.20;42.83
77366;BME280;66430;50.182;11.704;2023-06-22T04:25:45;95055.19;;;22.00;42.68
77366;BME280;66430;50.182;11.704;2023-06-22T04:28:11;95043.16;;;21.85;43.29
77366;BME280;66430;50.182;11.704;2023-06-22T04:30:38;95031.05;;;21.33;43.74
77366;BME280;66430;50.182;11.704;2023-06-22T04:33:01;95024.46;;;21.68;43.71
77366;BME280;66430;50.182;11.704;2023-06-22T04:35:27;95027.16;;;21.85;43.53
77366;BME280;66430;50.182;11.704;2023-06-22T04:37:53;95023.08;;;21.62;43.19
77366;BME280;66430;50.182;11.704;2023-06-22T04:40:18;95019.42;;;22.09;43.19
77366;BME280;66430;50.182;11.704;2023-06-22T04:42:43;94999.02;;;22.30;43.22
77366;BME280;66430;50.182;11.704;2023-06-22T04:45:09;94976.90;;;22.17;43.28
77366;BME280;66430;50.182;11.704;2023-06-22T04:47:35;94964.49;;;22.11;43.73
77366;BME280;66430;50.182;11.704;2023-06-22T04:49:58;94955.56;;;22.15;43.67
77366;BME280;66430;50.182;11.704;2023-06-22T04:52:24;94949.07;;;22.40;43.26
77366;BME280;66430;50.182;11.704;2023-06-22T04:54:52;94942.94;;;22.85;43.01
77366;BME280;66430;50.182;11.704;2023-06-22T04:57:15;94938.80;;;22.46;42.80
77366;BME280;66430;50.182;11.704;2023-06-22T04:59:41;94927.96;;;22.50;42.76
77366;BME280;66430;50.182;11.704;2023-06-22T05:02:06;94922.24;;;22.43;42.82
77366;BME280;66430;50.182;11.704;2023-06-22T05:04:32;94909.42;;;23.00;42.28
77366;BME280;66430;50.182;11.704;2023-06-22T05:06:59;94902.94;;;22.97;42.04
77366;BME280;66430;50.182;11.704;2023-06-22T05:09:22;94891.46;;;22.74;41.80
77366;BME280;66430;50.182;11.704;2023-06-22T05:11:51;94884.24;;;22.45;42.29
77366;BME280;66430;50.182;11.704;2023-06-22T05:14:13;94885.33;;;22.78;41.95
77366;BME280;66430;50.182;11.704;2023-06-22T05:16:42;94883.11;;;23.01;41.84
77366;BME280;66430;50.182;11.704;2023-06-22T05:19:04;94880.59;;;22.68;41.86
77366;BME280;66430;50.182;11.704;2023-06-22T05:21:30;94880.80;;;23.37;41.95
77366;BME280;66430;50.182;11.704;2023-06-22T05:23:56;94876.58;;;22.94;41.72
77366;BME280;66430;50.182;11.704;2023-06-22T05:26:20;94876.42;;;22.88;41.52
77366;BME280;66430;50.182;11.704;2023-06-22T05:28:45;94875.62;;;23.61;41.58
77366;BME280;66430;50.182;11.704;2023-06-22T05:31:10;94875.13;;;23.21;40.85
77366;BME280;66430;50.182;11.704;2023-06-22T05:33:35;94870.25;;;23.38;41.06
77366;BME280;66430;50.182;11.704;2023-06-22T05:36:01;94872.04;;;23.65;41.13
77366;BME280;66430;50.182;11.704;2023-06-22T05:38:26;94875.28;;;23.87;41.22
77366;BME280;66430;50.182;11.704;2023-06-22T05:40:51;94879.83;;;23.64;41.01
77366;BME280;66430;50.182;11.704;2023-06-22T05:43:16;94880.58;;;23.67;40.71
77366;BME280;66430;50.182;11.704;2023-06-22T05:45:41;94880.67;;;23.97;40.63
77366;BME280;66430;50.182;11.704;2023-06-22T05:48:08;94882.62;;;24.02;40.66
77366;BME280;66430;50.182;11.704;2023-06-22T05:50:32;94887.41;;;23.71;40.08
77366;BME280;66430;50.182;11.704;2023-06-22T05:52:58;94889.55;;;23.97;40.18
77366;BME280;66430;50.182;11.704;2023-06-22T05:55:24;94891.50;;;24.37;39.78
77366;BME280;66430;50.182;11.704;2023-06-22T05:57:49;94889.05;;;24.08;40.26
77366;BME280;66430;50.182;11.704;2023-06-22T06:00:15;94892.12;;;24.69;39.57
77366;BME280;66430;50.182;11.704;2023-06-22T06:02:41;94892.68;;;24.46;39.90
77366;BME280;66430;50.182;11.704;2023-06-22T06:05:06;94899.55;;;24.65;39.52
77366;BME280;66430;50.182;11.704;2023-06-22T06:07:31;94905.84;;;24.99;38.55
77366;BME280;66430;50.182;11.704;2023-06-22T06:09:56;94905.61;;;25.12;38.79
77366;BME280;66430;50.182;11.704;2023-06-22T06:12:23;94912.49;;;25.07;38.41
77366;BME280;66430;50.182;11.704;2023-06-22T06:14:47;94913.69;;;25.01;39.09
77366;BME280;66430;50.182;11.704;2023-06-22T06:17:12;94919.51;;;25.45;38.32
77366;BME280;66430;50.182;11.704;2023-06-22T06:19:39;94916.05;;;25.43;37.22
77366;BME280;66430;50.182;11.704;2023-06-22T06:22:03;94916.13;;;25.18;37.55
77366;BME280;66430;50.182;11.704;2023-06-22T06:24:28;94920.00;;;24.76;37.10
77366;BME280;66430;50.182;11.704;2023-06-22T06:26:55;94917.36;;;25.16;37.38
77366;BME280;66430;50.182;11.704;2023-06-22T06:29:19;94922.33;;;25.63;37.11
77366;BME280;66430;50.182;11.704;2023-06-22T06:31:43;94925.37;;;25.78;37.54
77366;BME280;66430;50.182;11.704;2023-06-22T06:34:09;94926.79;;;25.98;36.35
77366;BME280;66430;50.182;11.704;2023-06-22T06:36:34;94926.28;;;26.28;36.08
77366;BME280;66430;50.182;11.704;2023-06-22T06:38:59;94929.09;;;26.36;36.18
77366;BME280;66430;50.182;11.704;2023-06-22T06:41:24;94933.56;;;26.20;35.16
77366;BME280;66430;50.182;11.704;2023-06-22T06:43:50;94932.88;;;26.60;36.08
77366;BME280;66430;50.182;11.704;2023-06-22T06:46:15;94932.86;;;26.64;34.91
77366;BME280;66430;50.182;11.704;2023-06-22T06:48:41;94928.97;;;26.68;35.61
77366;BME280;66430;50.182;11.704;2023-06-22T06:51:06;94931.06;;;26.36;35.32
77366;BME280;66430;50.182;11.704;2023-06-22T06:53:31;94926.09;;;26.77;34.31
77366;BME280;66430;50.182;11.704;2023-06-22T06:55:57;94920.08;;;26.42;35.01
77366;BME280;66430;50.182;11.704;2023-06-22T06:58:22;94916.78;;;26.16;35.40
77366;BME280;66430;50.182;11.704;2023-06-22T07:00:48;94916.45;;;26.43;34.99
77366;BME280;66430;50.182;11.704;2023-06-22T07:03:15;94917.74;;;26.11;35.40
77366;BME280;66430;50.182;11.704;2023-06-22T07:05:39;94914.96;;;26.53;34.78
77366;BME280;66430;50.182;11.704;2023-06-22T07:08:05;94912.79;;;26.72;35.07
77366;BME280;66430;50.182;11.704;2023-06-22T07:10:30;94914.39;;;26.67;34.94
77366;BME280;66430;50.182;11.704;2023-06-22T07:12:55;94910.39;;;26.41;34.85
77366;BME280;66430;50.182;11.704;2023-06-22T07:15:22;94908.41;;;26.52;35.10
77366;BME280;66430;50.182;11.704;2023-06-22T07:17:48;94906.89;;;27.00;34.88
77366;BME280;66430;50.182;11.704;2023-06-22T07:20:13;94909.87;;;26.87;34.56
77366;BME280;66430;50.182;11.704;2023-06-22T07:22:38;94903.83;;;27.38;34.50
77366;BME280;66430;50.182;11.704;2023-06-22T07:25:06;94905.07;;;27.02;34.71
77366;BME280;66430;50.182;11.704;2023-06-22T07:27:31;94905.85;;;26.30;34.60
77366;BME280;66430;50.182;11.704;2023-06-22T07:29:55;94896.90;;;26.35;34.75
77366;BME280;66430;50.182;11.704;2023-06-22T07:32:20;94898.43;;;26.75;34.38
77366;BME280;66430;50.182;11.704;2023-06-22T07:34:46;94894.97;;;27.09;34.32
77366;BME280;66430;50.182;11.704;2023-06-22T07:37:11;94888.44;;;26.79;33.50
77366;BME280;66430;50.182;11.704;2023-06-22T07:39:37;94893.52;;;27.15;34.40
77366;BME280;66430;50.182;11.704;2023-06-22T07:42:02;94892.45;;;26.88;33.43
77366;BME280;66430;50.182;11.704;2023-06-22T07:44:27;94883.85;;;26.82;33.68
77366;BME280;66430;50.182;11.704;2023-06-22T07:46:53;94882.81;;;27.06;34.67
77366;BME280;66430;50.182;11.704;2023-06-22T07:49:19;94884.41;;;27.10;34.29
77366;BME280;66430;50.182;11.704;2023-06-22T07:51:44;94885.11;;;27.40;34.34
77366;BME280;66430;50.182;11.704;2023-06-22T07:54:10;94885.48;;;27.66;33.42
77366;BME280;66430;50.182;11.704;2023-06-22T07:56:35;94884.61;;;27.82;33.66
77366;BME280;66430;50.182;11.704;2023-06-22T07:59:03;94883.64;;;27.35;32.96
77366;BME280;66430;50.182;11.704;2023-06-22T08:01:26;94881.25;;;27.74;32.85
77366;BME280;66430;50.182;11.704;2023-06-22T08:03:51;94882.55;;;28.23;32.31
77366;BME280;66430;50.182;11.704;2023-06-22T08:06:21;94885.53;;;28.53;32.49
77366;BME280;66430;50.182;11.704;2023-06-22T08:08:42;94880.77;;;28.75;31.84
77366;BME280;66430;50.182;11.704;2023-06-22T08:11:09;94882.32;;;29.00;31.86
77366;BME280;66430;50.182;11.704;2023-06-22T08:13:33;94884.66;;;28.70;32.08
77366;BME280;66430;50.182;11.704;2023-06-22T08:15:59;94875.46;;;28.92;31.29
77366;BME280;66430;50.182;11.704;2023-06-22T08:18:24;94875.38;;;28.52;32.01
77366;BME280;66430;50.182;11.704;2023-06-22T08:20:50;94874.21;;;28.89;32.07
77366;BME280;66430;50.182;11.704;2023-06-22T08:23:15;94869.91;;;28.95;31.26
77366;BME280;66430;50.182;11.704;2023-06-22T08:25:41;94870.35;;;28.35;31.55
77366;BME280;66430;50.182;11.704;2023-06-22T08:28:06;94868.62;;;28.67;31.06
77366;BME280;66430;50.182;11.704;2023-06-22T08:30:31;94871.09;;;28.32;31.56
77366;BME280;66430;50.182;11.704;2023-06-22T08:32:58;94872.23;;;29.29;32.05
77366;BME280;66430;50.182;11.704;2023-06-22T08:35:23;94878.07;;;29.34;30.17
77366;BME280;66430;50.182;11.704;2023-06-22T08:37:47;94879.69;;;29.63;30.18
77366;BME280;66430;50.182;11.704;2023-06-22T08:40:14;94881.68;;;29.63;30.01
77366;BME280;66430;50.182;11.704;2023-06-22T08:42:40;94878.91;;;29.40;30.53
77366;BME280;66430;50.182;11.704;2023-06-22T08:45:05;94881.65;;;29.85;29.71
77366;BME280;66430;50.182;11.704;2023-06-22T08:47:31;94880.48;;;30.29;29.41
77366;BME280;66430;50.182;11.704;2023-06-22T08:49:55;94882.21;;;30.22;29.74
77366;BME280;66430;50.182;11.704;2023-06-22T08:52:20;94878.30;;;30.52;29.01
77366;BME280;66430;50.182;11.704;2023-06-22T08:54:46;94872.16;;;30.15;28.97
77366;BME280;66430;50.182;11.704;2023-06-22T08:57:11;94868.44;;;30.30;28.93
77366;BME280;66430;50.182;11.704;2023-06-22T08:59:37;94863.74;;;30.28;29.26
77366;BME280;66430;50.182;11.704;2023-06-22T09:02:03;94860.22;;;30.40;29.13
77366;BME280;66430;50.182;11.704;2023-06-22T09:04:28;94860.58;;;30.50;29.52
77366;BME280;66430;50.182;11.704;2023-06-22T09:06:54;94862.22;;;30.60;29.27
77366;BME280;66430;50.182;11.704;2023-06-22T09:09:18;94860.81;;;30.80;28.87
77366;BME280;66430;50.182;11.704;2023-06-22T09:11:44;94863.07;;;30.84;29.58
77366;BME280;66430;50.182;11.704;2023-06-22T09:14:10;94852.37;;;30.49;29.01
77366;BME280;66430;50.182;11.704;2023-06-22T09:16:35;94851.01;;;30.48;29.07
77366;BME280;66430;50.182;11.704;2023-06-22T09:19:00;94850.62;;;30.67;28.26
77366;BME280;66430;50.182;11.704;2023-06-22T09:21:26;94850.79;;;30.82;28.52
77366;BME280;66430;50.182;11.704;2023-06-22T09:23:51;94848.32;;;31.02;27.73
77366;BME280;66430;50.182;11.704;2023-06-22T09:26:17;94846.03;;;31.21;27.54
77366;BME280;66430;50.182;11.704;2023-06-22T09:28:42;94839.66;;;31.26;27.08
77366;BME280;66430;50.182;11.704;2023-06-22T09:31:08;94832.11;;;31.25;27.33
77366;BME280;66430;50.182;11.704;2023-06-22T09:33:33;94833.98;;;31.47;27.92
77366;BME280;66430;50.182;11.704;2023-06-22T09:35:58;94833.94;;;30.92;26.85
77366;BME280;66430;50.182;11.704;2023-06-22T09:38:23;94837.75;;;31.19;27.53
77366;BME280;66430;50.182;11.704;2023-06-22T09:40:48;94832.22;;;30.96;27.15
77366;BME280;66430;50.182;11.704;2023-06-22T09:43:17;94834.34;;;31.04;27.06
77366;BME280;66430;50.182;11.704;2023-06-22T09:45:39;94833.70;;;31.00;27.59
77366;BME280;66430;50.182;11.704;2023-06-22T09:48:05;94836.62;;;30.92;27.13
77366;BME280;66430;50.182;11.704;2023-06-22T09:50:30;94836.53;;;30.79;26.53
77366;BME280;66430;50.182;11.704;2023-06-22T09:52:56;94835.22;;;31.32;26.59
77366;BME280;66430;50.182;11.704;2023-06-22T09:55:22;94828.84;;;31.20;26.89
77366;BME280;66430;50.182;11.704;2023-06-22T09:57:47;94827.06;;;31.60;26.64
77366;BME280;66430;50.182;11.704;2023-06-22T10:00:14;94829.44;;;31.69;26.29
77366;BME280;66430;50.182;11.704;2023-06-22T10:02:39;94831.94;;;31.86;26.46
77366;BME280;66430;50.182;11.704;2023-06-22T10:05:04;94834.14;;;32.07;26.03
77366;BME280;66430;50.182;11.704;2023-06-22T10:07:29;94833.42;;;32.02;25.76
77366;BME280;66430;50.182;11.704;2023-06-22T10:09:55;94832.29;;;32.19;25.22
77366;BME280;66430;50.182;11.704;2023-06-22T10:12:27;94834.80;;;32.15;25.00
77366;BME280;66430;50.182;11.704;2023-06-22T10:14:45;94833.34;;;32.55;24.75
77366;BME280;66430;50.182;11.704;2023-06-22T10:17:10;94832.64;;;32.18;24.60
77366;BME280;66430;50.182;11.704;2023-06-22T10:19:36;94829.08;;;32.55;25.06
77366;BME280;66430;50.182;11.704;2023-06-22T10:22:01;94821.08;;;32.86;24.71
77366;BME280;66430;50.182;11.704;2023-06-22T10:24:27;94817.35;;;32.66;24.94
77366;BME280;66430;50.182;11.704;2023-06-22T10:26:52;94817.01;;;32.65;25.98
77366;BME280;66430;50.182;11.704;2023-06-22T10:29:18;94816.00;;;33.04;23.93
77366;BME280;66430;50.182;11.704;2023-06-22T10:31:44;94812.71;;;32.87;24.57
77366;BME280;66430;50.182;11.704;2023-06-22T10:34:08;94810.13;;;32.82;23.95
77366;BME280;66430;50.182;11.704;2023-06-22T10:36:44;94813.33;;;32.61;24.09
77366;BME280;66430;50.182;11.704;2023-06-22T10:38:59;94810.61;;;32.78;24.35
77366;BME280;66430;50.182;11.704;2023-06-22T10:41:24;94811.96;;;32.55;24.03
77366;BME280;66430;50.182;11.704;2023-06-22T10:43:51;94806.74;;;32.61;24.60
77366;BME280;66430;50.182;11.704;2023-06-22T10:46:15;94801.25;;;32.78;24.77
77366;BME280;66430;50.182;11.704;2023-06-22T10:48:45;94803.25;;;32.93;24.58
77366;BME280;66430;50.182;11.704;2023-06-22T10:51:05;94805.68;;;32.85;23.47
77366;BME280;66430;50.182;11.704;2023-06-22T10:53:36;94804.70;;;33.04;24.35
77366;BME280;66430;50.182;11.704;2023-06-22T10:55:56;94800.28;;;33.05;25.01
77366;BME280;66430;50.182;11.704;2023-06-22T10:58:21;94799.99;;;33.14;24.50
77366;BME280;66430;50.182;11.704;2023-06-22T11:00:47;94797.93;;;33.34;24.21
77366;BME280;66430;50.182;11.704;2023-06-22T11:03:12;94788.78;;;33.57;24.45
77366;BME280;66430;50.182;11.704;2023-06-22T11:05:43;94788.33;;;33.46;24.35
77366;BME280;66430;50.182;11.704;2023-06-22T11:08:04;94782.51;;;33.63;24.35
77366;BME280;66430;50.182;11.704;2023-06-22T11:10:29;94779.26;;;33.71;23.62
77366;BME280;66430;50.182;11.704;2023-06-22T11:12:55;94779.67;;;33.59;23.75
77366;BME280;66430;50.182;11.704;2023-06-22T11:15:20;94771.37;;;33.21;23.85
77366;BME280;66430;50.182;11.704;2023-06-22T11:17:46;94766.52;;;32.81;25.24
77366;BME280;66430;50.182;11.704;2023-06-22T11:20:12;94763.46;;;32.72;23.46
77366;BME280;66430;50.182;11.704;2023-06-22T11:22:37;94767.19;;;32.89;24.67
77366;BME280;66430;50.182;11.704;2023-06-22T11:25:02;94760.80;;;33.17;23.30
77366;BME280;66430;50.182;11.704;2023-06-22T11:27:28;94766.57;;;32.69;23.41
77366;BME280;66430;50.182;11.704;2023-06-22T11:30:01;94766.47;;;32.96;23.62
77366;BME280;66430;50.182;11.704;2023-06-22T11:32:20;94764.44;;;33.11;24.43
77366;BME280;66430;50.182;11.704;2023-06-22T11:34:45;94768.96;;;33.12;23.38
77366;BME280;66430;50.182;11.704;2023-06-22T11:37:11;94762.77;;;33.40;22.58
77366;BME280;66430;50.182;11.704;2023-06-22T11:39:35;94754.66;;;33.38;22.26
77366;BME280;66430;50.182;11.704;2023-06-22T11:42:01;94752.66;;;32.82;22.42
77366;BME280;66430;50.182;11.704;2023-06-22T11:44:26;94759.91;;;33.29;23.78
77366;BME280;66430;50.182;11.704;2023-06-22T11:46:51;94762.14;;;33.49;22.71
77366;BME280;66430;50.182;11.704;2023-06-22T11:49:17;94750.68;;;33.79;22.83
77366;BME280;66430;50.182;11.704;2023-06-22T11:51:43;94743.44;;;33.67;21.68
77366;BME280;66430;50.182;11.704;2023-06-22T11:54:08;94740.35;;;34.11;21.22
77366;BME280;66430;50.182;11.704;2023-06-22T11:56:35;94735.06;;;33.93;21.79
77366;BME280;66430;50.182;11.704;2023-06-22T11:58:58;94730.63;;;33.68;21.87
77366;BME280;66430;50.182;11.704;2023-06-22T12:01:24;94721.65;;;33.86;21.37
77366;BME280;66430;50.182;11.704;2023-06-22T12:03:49;94720.78;;;33.91;22.17
77366;BME280;66430;50.182;11.704;2023-06-22T12:06:15;94721.12;;;33.32;22.06
77366;BME280;66430;50.182;11.704;2023-06-22T12:08:40;94714.18;;;33.35;21.94
77366;BME280;66430;50.182;11.704;2023-06-22T12:11:06;94718.75;;;33.24;22.07
77366;BME280;66430;50.182;11.704;2023-06-22T12:13:31;94719.36;;;33.71;22.60
77366;BME280;66430;50.182;11.704;2023-06-22T12:15:56;94713.99;;;33.94;22.88
77366;BME280;66430;50.182;11.704;2023-06-22T12:18:22;94714.22;;;33.41;21.11
77366;BME280;66430;50.182;11.704;2023-06-22T12:20:48;94709.00;;;33.63;20.78
77366;BME280;66430;50.182;11.704;2023-06-22T12:23:14;94705.53;;;33.81;21.67
77366;BME280;66430;50.182;11.704;2023-06-22T12:25:39;94700.69;;;33.63;20.40
77366;BME280;66430;50.182;11.704;2023-06-22T12:28:04;94694.64;;;33.62;21.13
77366;BME280;66430;50.182;11.704;2023-06-22T12:30:29;94693.11;;;32.95;21.79
77366;BME280;66430;50.182;11.704;2023-06-22T12:32:55;94686.48;;;32.92;22.62
77366;BME280;66430;50.182;11.704;2023-06-22T12:35:21;94684.00;;;32.83;21.82
77366;BME280;66430;50.182;11.704;2023-06-22T12:37:46;94684.61;;;33.19;22.51
77366;BME280;66430;50.182;11.704;2023-06-22T12:40:11;94684.02;;;33.51;22.15